Time;durP1;ratioP1;P1;durP2;ratioP2;P2;SDS_P1;SDS_P2;PMS_P1;PMS_P2;Temp;Humidity;BMP_temperature;BMP_pressure;BME280_temperature;BME280_humidity;BME280_pressure;Samples;Min_cycle;Max_cycle;Signal;HPM_P1;HPM_P2
2021/09/26 00:00:46;;;;;;;3.10;0.90;;;;;;;;;;4995930;28;20029;-62
2021/09/26 00:03:11;;;;;;;4.22;1.00;;;;;;;;;;4993843;28;20053;-62
2021/09/26 00:05:37;;;;;;;2.40;0.70;;;;;;;;;;4996689;28;20080;-62
2021/09/26 00:08:03;;;;;;;3.33;1.00;;;;;;;;;;4994001;28;20033;-62
2021/09/26 00:10:29;;;;;;;1.42;0.80;;;;;;;;;;5000210;28;20607;-62
2021/09/26 00:12:54;;;;;;;2.85;0.80;;;;;;;;;;5001950;28;20044;-62
2021/09/26 00:15:22;;;;;;;2.90;1.05;;;;;;;;;;4997581;28;20030;-62
2021/09/26 00:17:48;;;;;;;1.23;0.20;;;;;;;;;;4999954;28;20033;-62
2021/09/26 00:20:15;;;;;;;0.85;0.38;;;;;;;;;;4998920;28;20042;-62
2021/09/26 00:22:41;;;;;;;0.85;0.25;;;;;;;;;;4998234;28;20116;-62
2021/09/26 00:25:08;;;;;;;1.98;0.22;;;;;;;;;;4999044;28;20592;-62
2021/09/26 00:27:34;;;;;;;2.80;0.32;;;;;;;;;;4999068;28;20037;-63
2021/09/26 00:29:59;;;;;;;1.23;0.10;;;;;;;;;;4996907;28;20404;-61
2021/09/26 00:32:25;;;;;;;1.95;0.22;;;;;;;;;;4998090;28;20034;-61
2021/09/26 00:34:50;;;;;;;3.63;0.43;;;;;;;;;;4995712;28;20038;-61
2021/09/26 00:37:16;;;;;;;0.50;0.10;;;;;;;;;;4995504;28;20057;-62
2021/09/26 00:39:42;;;;;;;0.50;0.22;;;;;;;;;;4996238;28;20204;-61
2021/09/26 00:42:07;;;;;;;0.38;0.10;;;;;;;;;;4995745;28;20034;-62
2021/09/26 00:44:33;;;;;;;0.20;0.10;;;;;;;;;;4996661;28;20030;-62
2021/09/26 00:46:59;;;;;;;0.57;0.10;;;;;;;;;;5003493;28;20164;-62
2021/09/26 00:49:25;;;;;;;0.47;0.13;;;;;;;;;;5001548;28;20400;-62
2021/09/26 00:51:51;;;;;;;1.63;0.13;;;;;;;;;;4999624;28;20037;-62
2021/09/26 00:54:17;;;;;;;2.38;0.20;;;;;;;;;;4997410;28;20038;-62
2021/09/26 00:56:47;;;;;;;0.43;0.20;;;;;;;;;;4995693;28;20173;-62
2021/09/26 00:59:17;;;;;;;0.10;0.00;;;;;;;;;;4997788;28;20042;-62
2021/09/26 01:01:42;;;;;;;2.22;0.13;;;;;;;;;;4996119;28;20065;-62
2021/09/26 01:04:08;;;;;;;0.95;0.10;;;;;;;;;;4999491;28;20062;-62
2021/09/26 01:06:52;;;;;;;0.10;0.10;;;;;;;;;;4997958;28;20393;-62
2021/09/26 01:09:35;;;;;;;0.75;0.20;;;;;;;;;;4999684;28;20084;-62
2021/09/26 01:12:23;;;;;;;2.92;0.25;;;;;;;;;;4998535;28;20299;-62
2021/09/26 01:14:51;;;;;;;0.60;0.17;;;;;;;;;;5000908;28;20243;-62
2021/09/26 01:17:27;;;;;;;0.30;0.10;;;;;;;;;;4995279;28;20076;-63
2021/09/26 01:20:26;;;;;;;0.43;0.10;;;;;;;;;;5002499;28;20037;-63
2021/09/26 01:23:08;;;;;;;0.15;0.08;;;;;;;;;;5001817;28;20029;-63
2021/09/26 01:25:57;;;;;;;0.70;0.20;;;;;;;;;;4999279;28;20520;-63
2021/09/26 01:28:52;;;;;;;0.47;0.10;;;;;;;;;;4995807;28;20551;-62
2021/09/26 01:31:39;;;;;;;0.40;0.10;;;;;;;;;;4997826;28;20595;-63
2021/09/26 01:34:14;;;;;;;0.10;0.10;;;;;;;;;;4996094;28;20037;-63
2021/09/26 01:36:53;;;;;;;0.90;0.10;;;;;;;;;;5001138;28;20492;-63
2021/09/26 01:39:23;;;;;;;2.78;0.10;;;;;;;;;;5000364;28;20046;-63
2021/09/26 01:42:15;;;;;;;2.30;0.13;;;;;;;;;;4998826;28;20042;-62
2021/09/26 01:44:47;;;;;;;0.90;0.20;;;;;;;;;;4997425;28;20044;-62
2021/09/26 01:47:18;;;;;;;0.55;0.20;;;;;;;;;;5000920;28;20073;-63
2021/09/26 01:49:47;;;;;;;2.30;0.30;;;;;;;;;;5003019;28;20033;-63
2021/09/26 01:52:20;;;;;;;0.10;0.10;;;;;;;;;;4995033;28;20524;-63
2021/09/26 01:54:47;;;;;;;0.25;0.20;;;;;;;;;;5001531;28;20030;-63
2021/09/26 01:57:16;;;;;;;0.32;0.10;;;;;;;;;;4999567;28;20519;-63
2021/09/26 01:59:41;;;;;;;1.13;0.10;;;;;;;;;;4993766;28;20113;-63
2021/09/26 02:02:07;;;;;;;2.50;0.20;;;;;;;;;;4999655;28;20129;-62
2021/09/26 02:04:34;;;;;;;5.22;0.22;;;;;;;;;;4998502;28;20038;-63
2021/09/26 02:07:00;;;;;;;1.50;0.10;;;;;;;;;;4998381;28;20053;-63
2021/09/26 02:09:26;;;;;;;0.63;0.20;;;;;;;;;;4997566;28;20045;-62
2021/09/26 02:11:53;;;;;;;0.35;0.10;;;;;;;;;;4998956;28;20034;-62
2021/09/26 02:14:19;;;;;;;0.55;0.20;;;;;;;;;;4997276;28;20080;-62
2021/09/26 02:16:45;;;;;;;1.33;0.20;;;;;;;;;;5002284;28;20026;-62
2021/09/26 02:19:11;;;;;;;1.13;0.10;;;;;;;;;;5000224;28;20092;-63
2021/09/26 02:21:37;;;;;;;1.38;0.38;;;;;;;;;;5000868;28;20500;-62
2021/09/26 02:24:04;;;;;;;0.85;0.20;;;;;;;;;;4999147;28;20026;-62
2021/09/26 02:26:33;;;;;;;1.38;0.13;;;;;;;;;;5002452;28;20456;-62
2021/09/26 02:28:58;;;;;;;0.90;0.13;;;;;;;;;;4998642;28;20114;-62
2021/09/26 02:31:24;;;;;;;1.95;0.10;;;;;;;;;;5003309;28;20038;-62
2021/09/26 02:33:49;;;;;;;0.77;0.20;;;;;;;;;;5004579;28;20393;-62
2021/09/26 02:36:16;;;;;;;0.25;0.10;;;;;;;;;;5005627;28;20824;-62
2021/09/26 02:38:42;;;;;;;0.30;0.10;;;;;;;;;;5003023;28;20064;-62
2021/09/26 02:41:35;;;;;;;2.58;0.52;;;;;;;;;;5003104;28;20065;-62
2021/09/26 02:44:09;;;;;;;3.42;0.20;;;;;;;;;;5005862;28;20048;-62
2021/09/26 02:46:39;;;;;;;0.40;0.30;;;;;;;;;;4997952;28;20033;-62
2021/09/26 02:49:05;;;;;;;1.70;0.13;;;;;;;;;;5002563;28;20544;-62
2021/09/26 02:51:32;;;;;;;0.60;0.10;;;;;;;;;;5002512;28;20501;-62
2021/09/26 02:53:59;;;;;;;3.35;0.40;;;;;;;;;;5004741;28;20036;-62
2021/09/26 02:56:26;;;;;;;0.20;0.17;;;;;;;;;;5003705;28;20033;-62
2021/09/26 02:58:54;;;;;;;0.65;0.15;;;;;;;;;;4997160;28;20036;-62
2021/09/26 03:01:20;;;;;;;1.00;0.32;;;;;;;;;;5000563;28;20030;-62
2021/09/26 03:03:45;;;;;;;1.63;0.20;;;;;;;;;;4998177;28;20030;-62
2021/09/26 03:06:11;;;;;;;3.65;0.15;;;;;;;;;;5001927;28;20033;-63
2021/09/26 03:08:37;;;;;;;1.10;0.20;;;;;;;;;;5000573;28;20029;-62
2021/09/26 03:11:02;;;;;;;0.20;0.20;;;;;;;;;;4999287;28;20033;-62
2021/09/26 03:13:28;;;;;;;2.92;0.10;;;;;;;;;;4997404;28;20065;-62
2021/09/26 03:15:55;;;;;;;0.40;0.20;;;;;;;;;;5001148;28;20026;-62
2021/09/26 03:18:21;;;;;;;1.00;0.28;;;;;;;;;;5002892;28;20025;-62
2021/09/26 03:20:46;;;;;;;1.08;0.40;;;;;;;;;;4997473;28;20042;-62
2021/09/26 03:23:12;;;;;;;0.90;0.30;;;;;;;;;;5003758;28;20454;-62
2021/09/26 03:25:38;;;;;;;0.52;0.10;;;;;;;;;;5003275;28;20034;-62
2021/09/26 03:28:04;;;;;;;0.57;0.20;;;;;;;;;;5002653;28;20151;-63
2021/09/26 03:30:30;;;;;;;0.80;0.20;;;;;;;;;;4997344;28;20030;-62
2021/09/26 03:32:55;;;;;;;0.43;0.10;;;;;;;;;;5002321;28;20041;-62
2021/09/26 03:35:21;;;;;;;0.47;0.20;;;;;;;;;;5000139;28;20137;-62
2021/09/26 03:37:47;;;;;;;0.30;0.10;;;;;;;;;;4996681;28;20057;-62
2021/09/26 03:40:13;;;;;;;0.40;0.10;;;;;;;;;;5002066;28;20068;-62
2021/09/26 03:42:39;;;;;;;0.35;0.10;;;;;;;;;;5004184;28;20057;-62
2021/09/26 03:45:05;;;;;;;0.50;0.00;;;;;;;;;;4999174;28;21047;-62
2021/09/26 03:47:31;;;;;;;1.35;0.10;;;;;;;;;;5000204;28;20057;-62
2021/09/26 03:49:57;;;;;;;0.30;0.10;;;;;;;;;;5003400;28;20058;-62
2021/09/26 03:52:22;;;;;;;2.75;0.10;;;;;;;;;;5001979;28;20038;-62
2021/09/26 03:54:50;;;;;;;3.13;0.20;;;;;;;;;;5005183;28;20030;-62
2021/09/26 03:57:17;;;;;;;0.55;0.20;;;;;;;;;;5002436;28;20535;-62
2021/09/26 03:59:43;;;;;;;0.38;0.10;;;;;;;;;;4995325;28;20027;-62
2021/09/26 04:02:09;;;;;;;0.20;0.10;;;;;;;;;;5001159;28;20037;-62
2021/09/26 04:04:35;;;;;;;1.02;0.75;;;;;;;;;;4999813;28;20030;-62
2021/09/26 04:07:01;;;;;;;2.10;0.10;;;;;;;;;;4999882;28;20456;-62
2021/09/26 04:09:26;;;;;;;0.40;0.20;;;;;;;;;;5003303;28;20504;-62
2021/09/26 04:11:52;;;;;;;0.73;0.10;;;;;;;;;;4997696;28;20306;-62
2021/09/26 04:14:17;;;;;;;2.72;0.10;;;;;;;;;;4999075;28;20472;-61
2021/09/26 04:16:43;;;;;;;1.70;0.10;;;;;;;;;;5004905;28;20041;-61
2021/09/26 04:19:08;;;;;;;1.55;0.10;;;;;;;;;;4997924;28;20061;-62
2021/09/26 04:21:34;;;;;;;0.47;0.25;;;;;;;;;;4999801;28;20391;-63
2021/09/26 04:24:00;;;;;;;0.20;0.13;;;;;;;;;;4997875;28;20398;-61
2021/09/26 04:26:25;;;;;;;0.80;0.20;;;;;;;;;;5004640;28;20033;-62
2021/09/26 04:28:51;;;;;;;2.15;0.30;;;;;;;;;;5000857;28;20030;-62
2021/09/26 04:31:17;;;;;;;0.47;0.10;;;;;;;;;;5001144;28;20379;-62
2021/09/26 04:33:42;;;;;;;1.83;0.22;;;;;;;;;;5003972;28;20040;-62
2021/09/26 04:36:08;;;;;;;0.30;0.30;;;;;;;;;;5000583;28;20560;-61
2021/09/26 04:38:34;;;;;;;0.30;0.20;;;;;;;;;;5001179;28;20065;-62
2021/09/26 04:41:00;;;;;;;1.40;0.32;;;;;;;;;;4995948;28;20479;-62
2021/09/26 04:43:26;;;;;;;0.40;0.30;;;;;;;;;;5003114;28;20572;-62
2021/09/26 04:45:51;;;;;;;0.25;0.10;;;;;;;;;;5002395;28;20036;-62
2021/09/26 04:48:17;;;;;;;1.02;0.10;;;;;;;;;;5002441;28;20046;-62
2021/09/26 04:50:45;;;;;;;1.75;0.20;;;;;;;;;;5002545;28;20026;-62
2021/09/26 04:53:11;;;;;;;0.20;0.17;;;;;;;;;;4995326;28;20704;-62
2021/09/26 04:55:37;;;;;;;3.45;0.15;;;;;;;;;;4999276;28;20030;-62
2021/09/26 04:58:05;;;;;;;0.40;0.10;;;;;;;;;;5002875;28;20212;-62
2021/09/26 05:00:32;;;;;;;1.73;0.17;;;;;;;;;;4993410;28;20305;-62
2021/09/26 05:02:58;;;;;;;0.50;0.20;;;;;;;;;;5002677;28;20548;-62
2021/09/26 05:05:24;;;;;;;0.38;0.10;;;;;;;;;;5002532;28;20036;-62
2021/09/26 05:07:49;;;;;;;0.63;0.20;;;;;;;;;;4998978;28;20513;-63
2021/09/26 05:10:15;;;;;;;0.15;0.10;;;;;;;;;;4999549;28;20247;-63
2021/09/26 05:12:40;;;;;;;0.57;0.10;;;;;;;;;;4998204;28;20032;-62
2021/09/26 05:15:06;;;;;;;0.10;0.00;;;;;;;;;;4996691;28;20112;-63
2021/09/26 05:17:32;;;;;;;0.20;0.10;;;;;;;;;;4999275;28;20433;-62
2021/09/26 05:19:59;;;;;;;0.93;0.25;;;;;;;;;;4998856;28;20407;-62
2021/09/26 05:22:26;;;;;;;1.58;0.10;;;;;;;;;;5000672;28;20129;-63
2021/09/26 05:24:52;;;;;;;0.00;0.00;;;;;;;;;;5002311;28;20109;-63
2021/09/26 05:27:17;;;;;;;0.32;0.10;;;;;;;;;;5000343;28;20077;-62
2021/09/26 05:29:43;;;;;;;0.30;0.10;;;;;;;;;;4998154;28;20084;-63
2021/09/26 05:32:09;;;;;;;3.40;0.13;;;;;;;;;;4998519;28;20029;-63
2021/09/26 05:34:35;;;;;;;0.43;0.20;;;;;;;;;;4999258;28;20038;-63
2021/09/26 05:37:01;;;;;;;0.30;0.10;;;;;;;;;;4996738;28;20046;-62
2021/09/26 05:39:26;;;;;;;0.40;0.10;;;;;;;;;;5001011;28;20034;-63
2021/09/26 05:41:53;;;;;;;0.57;0.10;;;;;;;;;;5002003;28;20040;-63
2021/09/26 05:44:19;;;;;;;0.17;0.10;;;;;;;;;;4997601;28;20424;-62
2021/09/26 05:46:44;;;;;;;0.85;0.20;;;;;;;;;;4998913;28;20034;-62
2021/09/26 05:49:10;;;;;;;1.13;0.13;;;;;;;;;;4994200;28;20030;-62
2021/09/26 05:51:36;;;;;;;1.48;0.10;;;;;;;;;;4998803;28;20075;-62
2021/09/26 05:54:02;;;;;;;0.20;0.13;;;;;;;;;;4996479;28;20432;-61
2021/09/26 05:56:27;;;;;;;0.63;0.22;;;;;;;;;;4996944;28;20485;-61
2021/09/26 05:58:53;;;;;;;1.52;0.20;;;;;;;;;;4999016;28;20354;-61
2021/09/26 06:01:18;;;;;;;1.10;0.30;;;;;;;;;;4998330;28;20034;-61
2021/09/26 06:03:44;;;;;;;0.22;0.08;;;;;;;;;;4998788;28;20030;-61
2021/09/26 06:06:09;;;;;;;0.20;0.17;;;;;;;;;;4997971;28;20026;-62
2021/09/26 06:08:35;;;;;;;0.20;0.17;;;;;;;;;;4997618;28;20026;-61
2021/09/26 06:11:00;;;;;;;0.10;0.10;;;;;;;;;;5000742;28;20432;-62
2021/09/26 06:13:26;;;;;;;1.48;0.30;;;;;;;;;;4999581;28;23006;-62
2021/09/26 06:15:52;;;;;;;0.28;0.10;;;;;;;;;;4998600;28;20424;-62
2021/09/26 06:18:18;;;;;;;0.45;0.28;;;;;;;;;;4997263;28;20156;-61
2021/09/26 06:20:45;;;;;;;0.50;0.20;;;;;;;;;;4999376;28;20041;-61
2021/09/26 06:23:10;;;;;;;1.67;0.20;;;;;;;;;;4998877;28;20037;-62
2021/09/26 06:25:36;;;;;;;0.45;0.10;;;;;;;;;;4999505;28;20034;-62
2021/09/26 06:28:01;;;;;;;0.63;0.20;;;;;;;;;;4999213;28;20041;-61
2021/09/26 06:30:27;;;;;;;0.40;0.30;;;;;;;;;;4997814;28;20038;-61
2021/09/26 06:32:52;;;;;;;1.90;0.10;;;;;;;;;;4997085;28;22978;-62
2021/09/26 06:35:18;;;;;;;0.52;0.10;;;;;;;;;;4993549;28;20078;-61
2021/09/26 06:37:43;;;;;;;3.40;0.20;;;;;;;;;;4997958;28;20030;-62
2021/09/26 06:40:09;;;;;;;0.10;0.10;;;;;;;;;;4997439;28;20503;-61
2021/09/26 06:42:35;;;;;;;0.30;0.10;;;;;;;;;;4997826;28;20041;-62
2021/09/26 06:45:01;;;;;;;0.10;0.05;;;;;;;;;;4996898;28;20378;-61
2021/09/26 06:47:26;;;;;;;0.10;0.10;;;;;;;;;;4996168;28;20038;-62
2021/09/26 06:49:53;;;;;;;0.15;0.10;;;;;;;;;;5002865;28;20053;-61
2021/09/26 06:52:18;;;;;;;1.45;0.10;;;;;;;;;;5002409;28;20017;-61
2021/09/26 06:54:44;;;;;;;0.28;0.05;;;;;;;;;;5003274;28;20041;-62
2021/09/26 06:57:10;;;;;;;0.20;0.03;;;;;;;;;;4999650;28;20088;-62
2021/09/26 06:59:37;;;;;;;1.02;0.10;;;;;;;;;;4998819;28;20432;-62
2021/09/26 07:02:03;;;;;;;0.22;0.10;;;;;;;;;;5001665;28;20441;-62
2021/09/26 07:04:28;;;;;;;1.90;0.00;;;;;;;;;;4996052;28;20061;-62
2021/09/26 07:06:54;;;;;;;0.95;0.10;;;;;;;;;;4999371;28;20036;-62
2021/09/26 07:09:19;;;;;;;0.10;0.10;;;;;;;;;;4999320;28;20035;-62
2021/09/26 07:11:45;;;;;;;3.22;0.00;;;;;;;;;;5001409;28;20040;-62
2021/09/26 07:14:11;;;;;;;1.20;0.00;;;;;;;;;;5000657;28;20042;-62
2021/09/26 07:16:37;;;;;;;2.60;0.00;;;;;;;;;;5000019;28;20100;-62
2021/09/26 07:19:02;;;;;;;0.00;0.00;;;;;;;;;;4999963;28;20488;-62
2021/09/26 07:21:28;;;;;;;7.13;0.60;;;;;;;;;;5004978;28;20034;-62
2021/09/26 07:23:53;;;;;;;0.35;0.00;;;;;;;;;;5003421;28;20026;-62
2021/09/26 07:26:19;;;;;;;1.25;0.10;;;;;;;;;;5000361;28;20052;-62
2021/09/26 07:28:44;;;;;;;0.55;0.00;;;;;;;;;;4996132;28;20026;-62
2021/09/26 07:31:10;;;;;;;1.23;0.00;;;;;;;;;;5002860;28;20481;-62
2021/09/26 07:33:36;;;;;;;0.05;0.00;;;;;;;;;;4997852;28;20066;-62
2021/09/26 07:36:01;;;;;;;1.35;0.10;;;;;;;;;;4993490;28;20042;-62
2021/09/26 07:38:27;;;;;;;0.47;0.00;;;;;;;;;;4999930;28;20042;-62
2021/09/26 07:40:52;;;;;;;0.20;0.08;;;;;;;;;;4999702;28;20128;-62
2021/09/26 07:43:18;;;;;;;0.10;0.00;;;;;;;;;;5002171;28;20041;-62
2021/09/26 07:45:44;;;;;;;0.30;0.00;;;;;;;;;;5001942;28;20533;-62
2021/09/26 07:48:09;;;;;;;0.00;0.00;;;;;;;;;;4998491;28;20150;-62
2021/09/26 07:50:35;;;;;;;0.00;0.00;;;;;;;;;;5000726;28;20099;-62
2021/09/26 07:53:00;;;;;;;0.95;0.00;;;;;;;;;;4996796;28;20026;-62
2021/09/26 07:55:26;;;;;;;0.90;0.00;;;;;;;;;;4995919;28;20035;-62
2021/09/26 07:57:51;;;;;;;0.00;0.00;;;;;;;;;;4997997;28;20108;-62
2021/09/26 08:00:18;;;;;;;0.00;0.00;;;;;;;;;;4997926;28;20477;-62
2021/09/26 08:02:43;;;;;;;0.47;0.00;;;;;;;;;;4997921;28;20394;-62
2021/09/26 08:05:10;;;;;;;0.00;0.00;;;;;;;;;;4997279;28;20061;-63
2021/09/26 08:07:36;;;;;;;3.25;0.38;;;;;;;;;;4998918;28;20053;-62
2021/09/26 08:10:03;;;;;;;0.85;0.00;;;;;;;;;;4999194;28;20130;-62
2021/09/26 08:12:29;;;;;;;0.10;0.00;;;;;;;;;;4998953;28;20029;-62
2021/09/26 08:14:54;;;;;;;1.13;0.10;;;;;;;;;;4997034;28;20030;-63
2021/09/26 08:17:20;;;;;;;0.13;0.00;;;;;;;;;;4997882;28;20022;-63
2021/09/26 08:19:45;;;;;;;0.20;0.00;;;;;;;;;;4994441;28;20548;-62
2021/09/26 08:22:11;;;;;;;3.40;0.13;;;;;;;;;;5001708;28;20069;-62
2021/09/26 08:24:37;;;;;;;0.60;0.10;;;;;;;;;;4995760;28;20416;-63
2021/09/26 08:27:05;;;;;;;0.47;0.10;;;;;;;;;;4996416;28;20026;-62
2021/09/26 08:29:31;;;;;;;1.55;0.20;;;;;;;;;;4996428;28;20109;-65
2021/09/26 08:31:56;;;;;;;2.38;0.25;;;;;;;;;;5003377;28;20061;-63
2021/09/26 08:34:22;;;;;;;3.60;0.20;;;;;;;;;;4999943;28;20089;-63
2021/09/26 08:36:48;;;;;;;0.17;0.03;;;;;;;;;;4997824;28;20362;-63
2021/09/26 08:39:13;;;;;;;0.75;0.32;;;;;;;;;;4998906;28;20040;-63
2021/09/26 08:41:39;;;;;;;0.73;0.10;;;;;;;;;;4992958;28;20034;-62
2021/09/26 08:44:06;;;;;;;1.52;0.10;;;;;;;;;;4998402;28;20033;-62
2021/09/26 08:46:32;;;;;;;3.15;0.20;;;;;;;;;;4999652;28;20049;-63
2021/09/26 08:48:58;;;;;;;1.00;0.10;;;;;;;;;;4994495;28;20029;-62
2021/09/26 08:51:25;;;;;;;1.05;0.10;;;;;;;;;;4995661;28;20326;-62
2021/09/26 08:53:51;;;;;;;3.55;0.22;;;;;;;;;;5005469;28;20560;-62
2021/09/26 08:56:18;;;;;;;1.55;0.30;;;;;;;;;;4996383;28;20288;-62
2021/09/26 08:58:44;;;;;;;1.15;0.20;;;;;;;;;;4997744;28;20029;-62
2021/09/26 09:01:10;;;;;;;2.15;0.15;;;;;;;;;;4996548;28;20038;-63
2021/09/26 09:03:37;;;;;;;2.80;0.20;;;;;;;;;;4998177;28;20142;-62
2021/09/26 09:06:02;;;;;;;2.13;0.30;;;;;;;;;;5002757;28;20108;-63
2021/09/26 09:08:28;;;;;;;3.22;0.30;;;;;;;;;;5004184;28;20532;-62
2021/09/26 09:11:00;;;;;;;5.13;0.45;;;;;;;;;;4993078;28;20080;-62
2021/09/26 09:13:28;;;;;;;1.92;0.25;;;;;;;;;;4996776;28;20234;-62
2021/09/26 09:15:55;;;;;;;5.68;0.30;;;;;;;;;;4998326;28;20033;-63
2021/09/26 09:18:21;;;;;;;4.95;1.10;;;;;;;;;;4996394;28;20257;-62
2021/09/26 09:20:47;;;;;;;9.68;1.30;;;;;;;;;;4990681;28;20447;-62
2021/09/26 09:23:21;;;;;;;3.08;0.50;;;;;;;;;;4998743;28;20049;-63
2021/09/26 09:25:55;;;;;;;6.50;0.73;;;;;;;;;;5000108;28;20025;-63
2021/09/26 09:28:26;;;;;;;5.40;0.52;;;;;;;;;;4997393;28;20104;-63
2021/09/26 09:30:53;;;;;;;3.97;0.77;;;;;;;;;;5000543;28;20088;-64
2021/09/26 09:33:20;;;;;;;3.25;0.40;;;;;;;;;;4997243;28;20461;-62
2021/09/26 09:35:51;;;;;;;4.72;1.23;;;;;;;;;;4996222;28;20065;-63
2021/09/26 09:38:33;;;;;;;5.93;1.52;;;;;;;;;;4993401;28;20038;-63
2021/09/26 09:40:59;;;;;;;5.53;0.50;;;;;;;;;;4995716;28;20125;-63
2021/09/26 09:43:27;;;;;;;1.65;0.38;;;;;;;;;;5000630;28;20042;-63
2021/09/26 09:45:59;;;;;;;3.28;0.30;;;;;;;;;;5003402;28;20083;-63
2021/09/26 09:48:27;;;;;;;4.82;0.68;;;;;;;;;;5002169;28;20037;-64
2021/09/26 09:51:06;;;;;;;3.63;0.30;;;;;;;;;;4995857;28;20034;-63
2021/09/26 09:53:31;;;;;;;4.28;0.50;;;;;;;;;;4995845;28;20037;-63
2021/09/26 09:56:10;;;;;;;2.55;0.22;;;;;;;;;;4998911;28;20026;-62
2021/09/26 09:59:01;;;;;;;6.93;0.90;;;;;;;;;;5001009;28;20037;-65
2021/09/26 10:01:31;;;;;;;5.18;0.30;;;;;;;;;;4999619;28;20061;-65
2021/09/26 10:04:08;;;;;;;8.10;1.38;;;;;;;;;;4999704;28;20033;-66
2021/09/26 10:06:35;;;;;;;5.35;0.32;;;;;;;;;;4998931;28;20034;-65
2021/09/26 10:09:28;;;;;;;2.40;0.35;;;;;;;;;;4998604;28;20036;-64
2021/09/26 10:11:56;;;;;;;22.58;1.10;;;;;;;;;;4999753;28;20156;-61
2021/09/26 10:14:27;;;;;;;4.95;0.55;;;;;;;;;;5003427;28;20040;-62
2021/09/26 10:16:54;;;;;;;4.70;0.60;;;;;;;;;;4995841;28;20642;-64
2021/09/26 10:19:22;;;;;;;5.05;0.40;;;;;;;;;;4999071;28;20081;-66
2021/09/26 10:21:50;;;;;;;9.43;0.60;;;;;;;;;;5004030;28;20033;-64
2021/09/26 10:24:19;;;;;;;3.67;0.60;;;;;;;;;;5001610;28;20026;-64
2021/09/26 10:26:45;;;;;;;3.45;0.30;;;;;;;;;;4997097;28;20069;-62
2021/09/26 10:29:12;;;;;;;5.28;0.30;;;;;;;;;;4997336;28;20109;-60
2021/09/26 10:31:39;;;;;;;6.03;0.50;;;;;;;;;;4994184;28;20026;-66
2021/09/26 10:34:05;;;;;;;8.40;0.63;;;;;;;;;;4995539;28;20068;-64
2021/09/26 10:36:36;;;;;;;3.97;0.40;;;;;;;;;;5001550;28;20086;-61
2021/09/26 10:39:05;;;;;;;3.65;0.65;;;;;;;;;;4997704;28;20131;-60
2021/09/26 10:41:31;;;;;;;4.50;0.50;;;;;;;;;;5003386;28;20033;-60
2021/09/26 10:44:17;;;;;;;5.93;0.57;;;;;;;;;;5002524;28;20029;-62
2021/09/26 10:46:42;;;;;;;6.15;0.50;;;;;;;;;;5004089;28;20030;-62
2021/09/26 10:49:15;;;;;;;1.88;0.32;;;;;;;;;;5001375;28;20048;-62
2021/09/26 10:51:49;;;;;;;5.85;0.50;;;;;;;;;;5004356;28;20168;-63
2021/09/26 10:54:30;;;;;;;7.22;0.70;;;;;;;;;;5000893;28;20405;-62
2021/09/26 10:57:05;;;;;;;4.28;0.45;;;;;;;;;;5009175;28;20022;-60
2021/09/26 10:59:41;;;;;;;7.20;0.60;;;;;;;;;;5000129;28;20084;-61
2021/09/26 11:02:27;;;;;;;8.85;2.00;;;;;;;;;;4996536;28;20246;-60
2021/09/26 11:04:59;;;;;;;5.32;0.60;;;;;;;;;;5004699;28;20034;-60
2021/09/26 11:07:42;;;;;;;5.90;0.45;;;;;;;;;;5003468;28;20013;-60
2021/09/26 11:10:07;;;;;;;5.00;0.52;;;;;;;;;;5000674;28;20030;-65
2021/09/26 11:12:36;;;;;;;4.65;0.55;;;;;;;;;;4997610;28;20084;-63
2021/09/26 11:15:05;;;;;;;4.60;0.50;;;;;;;;;;4999806;28;20029;-63
2021/09/26 11:18:06;;;;;;;2.90;0.30;;;;;;;;;;4999415;28;20065;-63
2021/09/26 11:20:32;;;;;;;7.47;0.85;;;;;;;;;;5001541;28;20038;-63
2021/09/26 11:23:06;;;;;;;2.67;0.30;;;;;;;;;;4996724;28;20056;-62
2021/09/26 11:25:56;;;;;;;4.65;0.55;;;;;;;;;;4995821;28;20253;-63
2021/09/26 11:28:30;;;;;;;6.97;0.52;;;;;;;;;;4998496;28;20038;-63
2021/09/26 11:30:57;;;;;;;2.40;0.30;;;;;;;;;;4999367;28;20524;-63
2021/09/26 11:33:24;;;;;;;6.22;0.43;;;;;;;;;;4996749;28;20041;-63
2021/09/26 11:35:50;;;;;;;3.75;0.30;;;;;;;;;;4999062;28;20081;-63
2021/09/26 11:38:22;;;;;;;2.20;0.95;;;;;;;;;;4996828;28;20390;-63
2021/09/26 11:40:50;;;;;;;3.72;0.50;;;;;;;;;;5003334;28;20061;-64
2021/09/26 11:43:18;;;;;;;6.63;0.38;;;;;;;;;;4997066;28;20022;-63
2021/09/26 11:45:44;;;;;;;6.10;0.57;;;;;;;;;;5003850;28;20101;-63
2021/09/26 11:48:10;;;;;;;4.13;0.43;;;;;;;;;;5006794;28;20033;-63
2021/09/26 11:50:38;;;;;;;3.67;0.47;;;;;;;;;;4999568;28;20092;-63
2021/09/26 11:53:05;;;;;;;2.63;0.40;;;;;;;;;;5001213;28;20386;-61
2021/09/26 11:55:34;;;;;;;3.97;0.60;;;;;;;;;;5002599;28;20075;-60
2021/09/26 11:58:01;;;;;;;1.27;0.17;;;;;;;;;;4997540;28;20022;-63
2021/09/26 12:00:30;;;;;;;6.78;0.50;;;;;;;;;;4998590;28;20141;-62
2021/09/26 12:02:56;;;;;;;2.03;0.30;;;;;;;;;;5001531;28;20374;-62
2021/09/26 12:05:35;;;;;;;2.60;0.65;;;;;;;;;;5003253;28;20226;-62
2021/09/26 12:08:01;;;;;;;5.80;0.60;;;;;;;;;;4999552;28;20534;-63
2021/09/26 12:10:26;;;;;;;2.90;0.30;;;;;;;;;;4998305;28;20030;-62
2021/09/26 12:12:52;;;;;;;5.32;0.45;;;;;;;;;;5001377;28;20444;-63
2021/09/26 12:15:17;;;;;;;4.63;0.30;;;;;;;;;;4997790;28;20493;-63
2021/09/26 12:17:43;;;;;;;6.05;0.60;;;;;;;;;;5003031;28;20037;-63
2021/09/26 12:20:10;;;;;;;4.38;0.22;;;;;;;;;;5001186;28;20031;-63
2021/09/26 12:22:37;;;;;;;3.75;0.30;;;;;;;;;;4995836;28;20046;-63
2021/09/26 12:25:08;;;;;;;1.67;0.20;;;;;;;;;;4999067;28;20037;-63
2021/09/26 12:27:45;;;;;;;1.45;0.32;;;;;;;;;;5001488;28;20060;-61
2021/09/26 12:30:29;;;;;;;3.70;0.30;;;;;;;;;;4995553;28;20049;-61
2021/09/26 12:33:05;;;;;;;2.53;0.30;;;;;;;;;;4998926;28;20109;-62
2021/09/26 12:35:39;;;;;;;0.73;0.20;;;;;;;;;;5002310;28;20042;-61
2021/09/26 12:38:25;;;;;;;3.25;0.68;;;;;;;;;;4996157;28;20052;-62
2021/09/26 12:41:20;;;;;;;4.68;0.30;;;;;;;;;;5006221;28;20038;-62
2021/09/26 12:43:55;;;;;;;3.67;0.38;;;;;;;;;;4997176;28;20467;-63
2021/09/26 12:46:28;;;;;;;4.13;0.50;;;;;;;;;;4993867;28;20065;-62
2021/09/26 12:48:54;;;;;;;4.47;0.47;;;;;;;;;;4998752;28;20104;-62
2021/09/26 12:51:27;;;;;;;4.68;0.50;;;;;;;;;;5001008;28;20034;-62
2021/09/26 12:53:56;;;;;;;4.20;0.50;;;;;;;;;;4999010;28;20225;-62
2021/09/26 12:56:24;;;;;;;6.53;0.93;;;;;;;;;;4994087;28;20015;-61
2021/09/26 12:58:55;;;;;;;7.82;0.60;;;;;;;;;;4999256;28;20041;-61
2021/09/26 13:01:30;;;;;;;3.33;0.50;;;;;;;;;;4997841;28;20057;-62
2021/09/26 13:03:58;;;;;;;3.70;0.82;;;;;;;;;;4999892;28;20029;-61
2021/09/26 13:06:28;;;;;;;5.28;0.50;;;;;;;;;;4993515;28;20219;-61
2021/09/26 13:08:55;;;;;;;4.80;0.75;;;;;;;;;;5001328;28;20026;-62
2021/09/26 13:11:26;;;;;;;6.25;0.50;;;;;;;;;;4991916;28;20026;-59
2021/09/26 13:14:18;;;;;;;8.80;0.98;;;;;;;;;;5004910;28;20037;-59
2021/09/26 13:16:52;;;;;;;4.90;0.60;;;;;;;;;;4992263;28;20026;-59
2021/09/26 13:19:52;;;;;;;6.82;0.60;;;;;;;;;;4992611;28;20484;-60
2021/09/26 13:22:17;;;;;;;3.33;0.50;;;;;;;;;;4999585;28;20029;-59
2021/09/26 13:25:13;;;;;;;3.42;0.35;;;;;;;;;;5000786;28;20036;-59
2021/09/26 13:28:01;;;;;;;3.95;0.57;;;;;;;;;;4993187;28;20029;-59
2021/09/26 13:30:38;;;;;;;5.38;0.65;;;;;;;;;;4996485;28;20037;-59
2021/09/26 13:33:17;;;;;;;4.97;0.40;;;;;;;;;;4993956;28;20034;-59
2021/09/26 13:35:43;;;;;;;4.95;0.60;;;;;;;;;;5001071;28;20060;-59
2021/09/26 13:38:17;;;;;;;4.07;0.65;;;;;;;;;;4995040;28;20049;-60
2021/09/26 13:40:49;;;;;;;7.93;0.28;;;;;;;;;;5002358;28;20104;-60
2021/09/26 13:43:41;;;;;;;3.85;0.60;;;;;;;;;;4996107;28;20137;-60
2021/09/26 13:46:09;;;;;;;2.95;0.75;;;;;;;;;;4995761;28;20390;-60
2021/09/26 13:48:39;;;;;;;3.63;0.30;;;;;;;;;;4997115;28;20034;-60
2021/09/26 13:51:09;;;;;;;3.03;0.40;;;;;;;;;;5001417;28;20460;-60
2021/09/26 13:53:36;;;;;;;3.20;0.43;;;;;;;;;;4999250;28;20566;-60
2021/09/26 13:56:02;;;;;;;2.95;0.20;;;;;;;;;;4996552;28;20126;-60
2021/09/26 13:58:28;;;;;;;1.77;0.40;;;;;;;;;;4991655;28;20027;-60
2021/09/26 14:00:54;;;;;;;2.83;0.38;;;;;;;;;;4992470;28;20036;-60
2021/09/26 14:03:21;;;;;;;1.60;0.30;;;;;;;;;;5002209;28;20061;-60
2021/09/26 14:05:47;;;;;;;4.40;0.20;;;;;;;;;;4995825;28;20586;-60
2021/09/26 14:08:12;;;;;;;1.92;0.20;;;;;;;;;;4998520;28;20037;-60
2021/09/26 14:10:38;;;;;;;3.08;0.20;;;;;;;;;;4998357;28;20030;-60
2021/09/26 14:13:05;;;;;;;4.90;0.10;;;;;;;;;;4995578;28;20026;-59
2021/09/26 14:15:35;;;;;;;0.55;0.00;;;;;;;;;;5000207;28;20622;-59
2021/09/26 14:18:01;;;;;;;2.80;0.17;;;;;;;;;;4999459;28;20029;-60
2021/09/26 14:20:30;;;;;;;2.88;0.30;;;;;;;;;;4996575;28;20111;-60
2021/09/26 14:22:56;;;;;;;3.80;0.50;;;;;;;;;;5005342;28;20022;-59
2021/09/26 14:25:22;;;;;;;1.65;0.20;;;;;;;;;;4997113;28;20352;-59
2021/09/26 14:27:47;;;;;;;1.50;0.38;;;;;;;;;;5006534;28;21020;-59
2021/09/26 14:30:14;;;;;;;6.15;0.40;;;;;;;;;;4999748;28;20026;-59
2021/09/26 14:32:40;;;;;;;6.28;0.30;;;;;;;;;;4998548;28;20030;-59
2021/09/26 14:35:07;;;;;;;2.88;0.52;;;;;;;;;;4979469;28;20068;-59
2021/09/26 14:37:32;;;;;;;8.10;0.63;;;;;;;;;;4997644;28;20073;-59
2021/09/26 14:39:58;;;;;;;8.65;0.63;;;;;;;;;;4994430;28;20481;-59
2021/09/26 14:42:23;;;;;;;2.03;0.40;;;;;;;;;;5000418;28;20545;-59
2021/09/26 14:44:49;;;;;;;3.13;0.47;;;;;;;;;;4997274;28;20030;-59
2021/09/26 14:47:14;;;;;;;6.32;0.70;;;;;;;;;;4997322;28;20547;-59
2021/09/26 14:49:40;;;;;;;7.63;2.05;;;;;;;;;;5007878;28;20239;-59
2021/09/26 14:52:06;;;;;;;2.75;0.30;;;;;;;;;;4993588;28;20551;-59